Aeroboteco Virtual Airlines! Uma nuvem a frente.



 INFORMAÇÕES METEOROLÓGICAS
METAR FOR EDDH
ADDS - METARS form results

(1128 UTC 17 February 2019)
Data provider http://aviationweather.gov/metar/data/
 
METAR text: EDDH 171120Z 16007KT 120V180 CAVOK 12/03 Q1022 NOSIG
Conditions at: EDDH (HAMBURG/FUHLSBUT, DE) observed 1120 UTC 17 February 2019
Temperature: 12.0°C (54°F)
Dewpoint: 3.0°C (37°F) [RH = 54%]
Pressure (altimeter): 30.18 inches Hg (1022.0 mb)
Winds: from the SSE (160 degrees) at 8 MPH (7 knots; 3.6 m/s)
Visibility: 6 or more miles (10+ km)
Ceiling: ceiling and visibility are OK
Clouds: unknown
Weather: no significant weather observed at this time

METAR text: EDDH 171050Z 15007KT CAVOK 11/03 Q1023 NOSIG
Conditions at: EDDH (HAMBURG/FUHLSBUT, DE) observed 1050 UTC 17 February 2019
Temperature: 11.0°C (52°F)
Dewpoint: 3.0°C (37°F) [RH = 58%]
Pressure (altimeter): 30.21 inches Hg (1023.0 mb)
Winds: from the SSE (150 degrees) at 8 MPH (7 knots; 3.6 m/s)
Visibility: 6 or more miles (10+ km)
Ceiling: ceiling and visibility are OK
Clouds: unknown
Weather: no significant weather observed at this time

Forecast for: EDDH (HAMBURG/FUHLSBUT, DE)
Text: TAF EDDH 171100Z 1712/1818 18007KT CAVOK
Forecast period: 1200 UTC 17 February 2019 to 1800 UTC 18 February 2019
Forecast type: FROM: standard forecast or significant change
Winds: from the S (180 degrees) at 8 MPH (7 knots; 3.6 m/s)
Visibility: 6 or more miles 10+ km)
Ceiling: unknown
Clouds: missing
Weather: NSW  (no significant weather)

 MAPA DO AEROPORTO

 INFORMAÇÕES DA PISTA
Pista 05 Tamanho da pista 10663 ft Largura da pista 150 ft
Elevação da pista 32 ft Ranhura da pista 978 ft Proa da pista 50
Pista 23 Tamanho da pista 10663 ft Largura da pista 150 ft
Elevação da pista 43 ft Ranhura da pista 512 ft Proa da pista 230
Pista 15 Tamanho da pista 12028 ft Largura da pista 150 ft
Elevação da pista 53 ft Ranhura da pista 0 ft Proa da pista 153
Pista 33 Tamanho da pista 12028 ft Largura da pista 150 ft
Elevação da pista 35 ft Ranhura da pista 1464 ft Proa da pista 333

 FREQUÊNCIAS DO AEROPORTO
Tipo ATIS Nome ATIS Frequência 123.125 MHZ
Tipo DIR Nome DIRECTOR Frequência 118.2 MHZ
Tipo GND Nome GND Frequência 121.8 MHZ
Tipo RDR Nome BREMEN RAD Frequência 134.25 MHZ
Tipo RMP Nome APRON Frequência 121.7 MHZ
Tipo TWR Nome TWR Frequência 126.85 MHZ

 AUXÍLIOS DE NAVEGAÇÃO PRÓXIMOS AO AEROPORTO
Tipo DME Nome Alster Frequência 115800 KHZ
Tipo NDB Nome Hamburg West Frequência 351 KHZ
Tipo NDB Nome Hamburg North Frequência 323 KHZ
Tipo VORTAC Nome Hamburg Frequência 113100 KHZ
Tipo NDB Nome Hamburg Frequência 339 KHZ